Time;durP1;ratioP1;P1;durP2;ratioP2;P2;SDS_P1;SDS_P2;PMS_P1;PMS_P2;Temp;Humidity;BMP_temperature;BMP_pressure;BME280_temperature;BME280_humidity;BME280_pressure;Samples;Min_cycle;Max_cycle;Signal;HPM_P1;HPM_P2
2023/02/24 00:02:18;;;;;;;;;;;4.90;99.90;;;;;;5063071;28;19974;-62
2023/02/24 00:04:50;;;;;;;;;;;5.00;99.90;;;;;;5066562;28;19925;-62
2023/02/24 00:07:17;;;;;;;;;;;5.20;99.90;;;;;;5055470;28;19925;-62
2023/02/24 00:09:44;;;;;;;;;;;5.30;99.90;;;;;;5055718;28;19955;-62
2023/02/24 00:12:11;;;;;;;;;;;5.30;99.90;;;;;;5055414;28;20015;-63
2023/02/24 00:14:40;;;;;;;;;;;5.30;99.90;;;;;;5056145;28;20051;-63
2023/02/24 00:17:07;;;;;;;;;;;5.30;99.90;;;;;;5066892;28;19962;-63
2023/02/24 00:19:34;;;;;;;;;;;5.20;99.90;;;;;;5065004;28;20011;-63
2023/02/24 00:22:01;;;;;;;;;;;5.10;99.90;;;;;;5067097;28;19932;-63
2023/02/24 00:24:28;;;;;;;;;;;5.20;99.90;;;;;;5066812;28;19932;-63
2023/02/24 00:26:55;;;;;;;;;;;5.30;99.90;;;;;;5071107;28;19929;-63
2023/02/24 00:29:23;;;;;;;;;;;5.50;99.90;;;;;;5065774;28;19925;-63
2023/02/24 00:31:57;;;;;;;;;;;5.50;99.90;;;;;;5063296;28;20003;-63
2023/02/24 00:34:24;;;;;;;;;;;5.60;99.90;;;;;;5055279;28;19932;-63
2023/02/24 00:36:51;;;;;;;;;;;5.70;99.90;;;;;;5055091;28;19939;-62
2023/02/24 00:39:17;;;;;;;;;;;5.70;99.90;;;;;;5058737;28;19929;-63
2023/02/24 00:41:44;;;;;;;;;;;5.70;99.90;;;;;;5064757;28;19924;-61
2023/02/24 00:44:12;;;;;;;;;;;5.70;99.90;;;;;;5063972;28;19928;-61
2023/02/24 00:46:40;;;;;;;;;;;5.70;99.90;;;;;;5063965;28;19928;-62
2023/02/24 00:49:09;;;;;;;;;;;5.80;99.90;;;;;;5069284;28;19947;-65
2023/02/24 00:51:37;;;;;;;;;;;5.80;99.90;;;;;;5067210;28;19929;-62
2023/02/24 00:54:03;;;;;;;;;;;5.80;99.90;;;;;;5068281;28;19924;-62
2023/02/24 00:56:30;;;;;;;;;;;5.90;99.90;;;;;;5065838;28;19924;-60
2023/02/24 00:58:58;;;;;;;;;;;5.90;99.90;;;;;;5065788;28;20390;-64
2023/02/24 01:01:25;;;;;;;;;;;5.80;99.90;;;;;;5072232;28;19955;-63
2023/02/24 01:03:53;;;;;;;;;;;5.80;99.90;;;;;;5070280;28;20333;-63
2023/02/24 01:06:22;;;;;;;;;;;5.70;99.90;;;;;;5066936;28;19928;-63
2023/02/24 01:08:49;;;;;;;;;;;5.70;99.90;;;;;;5066068;28;19924;-63
2023/02/24 01:14:00;;;;;;;;;;;5.80;99.90;;;;;;5054940;28;20066;-62
2023/02/24 01:16:27;;;;;;;;;;;5.60;99.90;;;;;;5054305;28;20332;-61
2023/02/24 01:18:53;;;;;;;;;;;5.60;99.90;;;;;;5069316;28;20018;-63
2023/02/24 01:21:22;;;;;;;;;;;5.60;99.90;;;;;;5068650;28;20421;-62
2023/02/24 01:23:49;;;;;;;;;;;5.60;99.90;;;;;;5065211;28;19925;-61
2023/02/24 01:26:16;;;;;;;;;;;5.60;99.90;;;;;;5061364;28;20276;-63
2023/02/24 01:28:44;;;;;;;;;;;5.60;99.90;;;;;;5066435;28;19929;-63
2023/02/24 01:31:11;;;;;;;;;;;5.50;99.90;;;;;;5060455;28;19924;-63
2023/02/24 01:33:38;;;;;;;;;;;5.40;99.90;;;;;;5065169;28;20272;-63
2023/02/24 01:36:09;;;;;;;;;;;5.20;99.90;;;;;;5063092;28;19924;-63
2023/02/24 01:38:37;;;;;;;;;;;5.10;99.90;;;;;;5062319;28;19956;-62
2023/02/24 01:41:05;;;;;;;;;;;5.00;99.90;;;;;;5065104;28;19931;-63
2023/02/24 01:43:32;;;;;;;;;;;5.10;99.90;;;;;;5063230;28;19933;-64
2023/02/24 01:45:59;;;;;;;;;;;5.10;99.90;;;;;;5062249;28;20284;-62
2023/02/24 01:48:26;;;;;;;;;;;5.00;99.90;;;;;;5067166;28;19955;-62
2023/02/24 01:50:52;;;;;;;;;;;4.90;99.90;;;;;;5072418;28;19924;-62
2023/02/24 01:53:19;;;;;;;;;;;4.90;99.90;;;;;;5066658;28;19979;-62
2023/02/24 01:55:49;;;;;;;;;;;4.90;99.90;;;;;;5062841;28;20004;-62
2023/02/24 01:58:22;;;;;;;;;;;5.00;99.90;;;;;;5057131;28;20043;-63
2023/02/24 02:00:49;;;;;;;;;;;5.10;99.90;;;;;;5067899;28;19975;-61
2023/02/24 02:03:19;;;;;;;;;;;5.10;99.90;;;;;;5063643;28;19925;-63
2023/02/24 02:05:47;;;;;;;;;;;5.10;99.90;;;;;;5062361;28;19925;-63
2023/02/24 02:08:14;;;;;;;;;;;5.10;99.90;;;;;;5058456;28;19929;-63
2023/02/24 02:10:42;;;;;;;;;;;5.00;99.90;;;;;;5062603;28;20500;-64
2023/02/24 02:13:11;;;;;;;;;;;4.90;99.90;;;;;;5065676;28;19947;-61
2023/02/24 02:15:43;;;;;;;;;;;4.80;99.90;;;;;;5069191;28;19928;-62
2023/02/24 02:18:15;;;;;;;;;;;4.60;99.90;;;;;;5068779;28;19935;-60
2023/02/24 02:20:59;;;;;;;;;;;4.70;99.90;;;;;;5067767;28;20383;-62
2023/02/24 02:23:44;;;;;;;;;;;4.70;99.90;;;;;;5053666;28;19978;-62
2023/02/24 02:26:31;;;;;;;;;;;4.70;99.90;;;;;;5068402;28;20409;-64
2023/02/24 02:29:10;;;;;;;;;;;4.60;99.90;;;;;;5063523;28;20391;-63
2023/02/24 02:31:49;;;;;;;;;;;4.60;99.90;;;;;;5060700;28;19986;-64
2023/02/24 02:34:23;;;;;;;;;;;4.60;99.90;;;;;;5066062;28;19925;-61
2023/02/24 02:36:55;;;;;;;;;;;4.60;99.90;;;;;;5058582;28;20351;-63
2023/02/24 02:39:27;;;;;;;;;;;4.60;99.90;;;;;;5065238;28;19924;-62
2023/02/24 02:41:58;;;;;;;;;;;4.60;99.90;;;;;;5060928;28;19929;-62
2023/02/24 02:44:31;;;;;;;;;;;4.60;99.90;;;;;;5061756;28;19925;-62
2023/02/24 02:46:59;;;;;;;;;;;4.70;99.90;;;;;;5064979;28;19931;-62
2023/02/24 02:49:31;;;;;;;;;;;4.70;99.90;;;;;;5067452;28;19929;-63
2023/02/24 02:52:04;;;;;;;;;;;4.80;99.90;;;;;;5064629;28;20423;-62
2023/02/24 02:54:35;;;;;;;;;;;4.80;99.90;;;;;;5062252;28;19982;-61
2023/02/24 02:57:05;;;;;;;;;;;4.70;99.90;;;;;;5060416;28;19956;-62
2023/02/24 02:59:34;;;;;;;;;;;4.70;99.90;;;;;;5063984;28;19956;-62
2023/02/24 03:02:10;;;;;;;;;;;4.60;99.90;;;;;;5063489;28;19928;-63
2023/02/24 03:04:41;;;;;;;;;;;4.70;99.90;;;;;;5063895;28;20020;-63
2023/02/24 03:07:08;;;;;;;;;;;4.70;99.90;;;;;;5051892;28;19932;-62
2023/02/24 03:09:37;;;;;;;;;;;4.70;99.90;;;;;;5052263;28;20396;-63
2023/02/24 03:12:06;;;;;;;;;;;4.80;99.90;;;;;;5059465;28;19936;-63
2023/02/24 03:14:36;;;;;;;;;;;4.70;99.90;;;;;;5059077;28;19982;-61
2023/02/24 03:17:06;;;;;;;;;;;4.70;99.90;;;;;;5064601;28;19931;-62
2023/02/24 03:19:36;;;;;;;;;;;4.70;99.90;;;;;;5065797;28;20007;-62
2023/02/24 03:22:11;;;;;;;;;;;4.70;99.90;;;;;;5061156;28;19924;-62
2023/02/24 03:24:39;;;;;;;;;;;4.70;99.90;;;;;;5060707;28;19925;-62
2023/02/24 03:27:07;;;;;;;;;;;4.70;99.90;;;;;;5058972;28;20380;-61
2023/02/24 03:29:36;;;;;;;;;;;4.70;99.90;;;;;;5058930;28;19924;-63
2023/02/24 03:32:05;;;;;;;;;;;4.70;99.90;;;;;;5059472;28;19932;-63
2023/02/24 03:34:36;;;;;;;;;;;4.70;99.90;;;;;;5059273;28;19928;-62
2023/02/24 03:37:05;;;;;;;;;;;4.60;99.90;;;;;;5064859;28;20011;-63
2023/02/24 03:39:31;;;;;;;;;;;4.60;99.90;;;;;;5067775;28;20452;-63
2023/02/24 03:42:01;;;;;;;;;;;4.60;99.90;;;;;;5055996;28;20225;-62
2023/02/24 03:44:28;;;;;;;;;;;4.70;99.90;;;;;;5065971;28;20027;-63
2023/02/24 03:46:55;;;;;;;;;;;4.60;99.90;;;;;;5069797;28;19936;-62
2023/02/24 03:49:24;;;;;;;;;;;4.60;99.90;;;;;;5064092;28;19928;-62
2023/02/24 03:51:58;;;;;;;;;;;4.60;99.90;;;;;;5064325;28;20350;-62
2023/02/24 03:54:36;;;;;;;;;;;4.60;99.90;;;;;;5065359;28;19928;-63
2023/02/24 03:57:11;;;;;;;;;;;4.60;99.90;;;;;;5060225;28;19928;-63
2023/02/24 03:59:41;;;;;;;;;;;4.50;99.90;;;;;;5059907;28;19924;-63
2023/02/24 04:02:13;;;;;;;;;;;4.60;99.90;;;;;;5060672;28;19928;-63
2023/02/24 04:04:43;;;;;;;;;;;4.70;99.90;;;;;;5062869;28;19991;-63
2023/02/24 04:07:13;;;;;;;;;;;4.70;99.90;;;;;;5058887;28;20032;-63
2023/02/24 04:09:42;;;;;;;;;;;4.60;99.90;;;;;;5059162;28;19929;-64
2023/02/24 04:12:15;;;;;;;;;;;4.50;99.90;;;;;;5062157;28;20304;-63
2023/02/24 04:14:47;;;;;;;;;;;4.40;99.90;;;;;;5064159;28;19929;-63
2023/02/24 04:17:18;;;;;;;;;;;4.50;99.90;;;;;;5063515;28;19932;-63
2023/02/24 04:19:46;;;;;;;;;;;4.50;99.90;;;;;;5071192;28;19924;-63
2023/02/24 04:22:15;;;;;;;;;;;4.50;99.90;;;;;;5064258;28;19925;-62
2023/02/24 04:24:44;;;;;;;;;;;4.50;99.90;;;;;;5062221;28;19925;-62
2023/02/24 04:27:12;;;;;;;;;;;4.40;99.90;;;;;;5062641;28;19931;-62
2023/02/24 04:29:45;;;;;;;;;;;4.50;99.90;;;;;;5060815;28;19924;-62
2023/02/24 04:32:13;;;;;;;;;;;4.50;99.90;;;;;;5059453;28;19970;-63
2023/02/24 04:34:39;;;;;;;;;;;4.50;99.90;;;;;;5065080;28;19932;-62
2023/02/24 04:37:06;;;;;;;;;;;4.40;99.90;;;;;;5059880;28;20319;-63
2023/02/24 04:39:35;;;;;;;;;;;4.30;99.90;;;;;;5061422;28;19979;-62
2023/02/24 04:42:05;;;;;;;;;;;4.30;99.90;;;;;;5063875;28;20303;-62
2023/02/24 04:44:32;;;;;;;;;;;4.30;99.90;;;;;;5070425;28;19929;-63
2023/02/24 04:46:59;;;;;;;;;;;4.30;99.90;;;;;;5068847;28;19932;-63
2023/02/24 04:49:26;;;;;;;;;;;4.30;99.90;;;;;;5073315;28;19924;-63
2023/02/24 04:51:52;;;;;;;;;;;4.20;99.90;;;;;;5065605;28;19986;-63
2023/02/24 04:54:19;;;;;;;;;;;4.20;99.90;;;;;;5065897;28;20334;-62
2023/02/24 04:56:47;;;;;;;;;;;4.20;99.90;;;;;;5062400;28;19928;-60
2023/02/24 04:59:15;;;;;;;;;;;4.20;99.90;;;;;;5062199;28;20019;-62
2023/02/24 05:01:42;;;;;;;;;;;4.20;99.90;;;;;;5066217;28;20035;-63
2023/02/24 05:04:10;;;;;;;;;;;4.30;99.90;;;;;;5062019;28;20391;-62
2023/02/24 05:06:39;;;;;;;;;;;4.30;99.90;;;;;;5066055;28;19929;-63
2023/02/24 05:09:12;;;;;;;;;;;4.30;99.90;;;;;;5067134;28;19931;-62
2023/02/24 05:11:41;;;;;;;;;;;4.10;99.90;;;;;;5063146;28;20391;-63
2023/02/24 05:14:08;;;;;;;;;;;4.20;99.90;;;;;;5066995;28;19925;-62
2023/02/24 05:16:36;;;;;;;;;;;4.10;99.90;;;;;;5064137;28;19925;-62
2023/02/24 05:21:47;;;;;;;;;;;4.20;99.90;;;;;;5061858;28;19927;-63
2023/02/24 05:24:16;;;;;;;;;;;4.20;99.90;;;;;;5065257;28;19924;-63
2023/02/24 05:26:42;;;;;;;;;;;4.20;99.90;;;;;;5059335;28;19929;-62
2023/02/24 05:29:11;;;;;;;;;;;4.30;99.90;;;;;;5062937;28;19924;-61
2023/02/24 05:31:39;;;;;;;;;;;4.30;99.90;;;;;;5062702;28;19932;-62
2023/02/24 05:34:06;;;;;;;;;;;4.30;99.90;;;;;;5061553;28;20019;-62
2023/02/24 05:36:34;;;;;;;;;;;4.30;99.90;;;;;;5064925;28;19990;-59
2023/02/24 05:39:06;;;;;;;;;;;4.30;99.90;;;;;;5064142;28;20319;-61
2023/02/24 05:41:34;;;;;;;;;;;4.30;99.90;;;;;;5066386;28;19932;-62
2023/02/24 05:44:03;;;;;;;;;;;4.20;99.90;;;;;;5066916;28;19928;-64
2023/02/24 05:46:31;;;;;;;;;;;4.30;99.90;;;;;;5076633;28;20019;-62
2023/02/24 05:49:00;;;;;;;;;;;4.30;99.90;;;;;;5067919;28;19931;-62
2023/02/24 05:51:33;;;;;;;;;;;4.30;99.90;;;;;;5072769;28;19925;-62
2023/02/24 05:54:03;;;;;;;;;;;4.30;99.90;;;;;;5064333;28;20341;-63
2023/02/24 05:56:30;;;;;;;;;;;4.30;99.90;;;;;;5062015;28;19952;-62
2023/02/24 05:59:01;;;;;;;;;;;4.20;99.90;;;;;;5066792;28;19924;-62
2023/02/24 06:01:29;;;;;;;;;;;4.30;99.90;;;;;;5064703;28;20405;-61
2023/02/24 06:03:55;;;;;;;;;;;4.40;99.90;;;;;;5062852;28;19947;-62
2023/02/24 06:06:23;;;;;;;;;;;4.40;99.90;;;;;;5062252;28;19979;-63
2023/02/24 06:08:50;;;;;;;;;;;4.50;99.90;;;;;;5060832;28;19928;-63
2023/02/24 06:11:18;;;;;;;;;;;4.40;99.90;;;;;;5063843;28;19925;-61
2023/02/24 06:13:47;;;;;;;;;;;4.40;99.90;;;;;;5061930;28;19925;-66
2023/02/24 06:16:14;;;;;;;;;;;4.40;99.90;;;;;;5067985;28;19932;-61
2023/02/24 06:18:40;;;;;;;;;;;4.40;99.90;;;;;;5069438;28;19976;-61
2023/02/24 06:21:07;;;;;;;;;;;4.40;96.40;;;;;;5064691;28;20003;-61
2023/02/24 06:23:35;;;;;;;;;;;4.30;95.60;;;;;;5063381;28;20367;-62
2023/02/24 06:26:02;;;;;;;;;;;4.30;96.70;;;;;;5059890;28;19924;-61
2023/02/24 06:28:29;;;;;;;;;;;4.30;96.80;;;;;;5064655;28;19944;-61
2023/02/24 06:30:56;;;;;;;;;;;4.30;91.60;;;;;;5067368;28;19925;-61
2023/02/24 06:33:25;;;;;;;;;;;4.30;89.10;;;;;;5064501;28;19929;-60
2023/02/24 06:35:52;;;;;;;;;;;4.20;82.50;;;;;;5062700;28;19970;-60
2023/02/24 06:38:18;;;;;;;;;;;4.20;90.20;;;;;;5062148;28;19924;-60
2023/02/24 06:40:51;;;;;;;;;;;4.20;91.90;;;;;;5062308;28;19925;-60
2023/02/24 06:43:18;;;;;;;;;;;4.10;93.80;;;;;;5052764;28;19925;-60
2023/02/24 06:45:44;;;;;;;;;;;4.10;98.50;;;;;;5055632;28;19928;-59
2023/02/24 06:48:11;;;;;;;;;;;4.00;99.90;;;;;;5064302;28;19929;-58
2023/02/24 06:50:39;;;;;;;;;;;4.10;99.90;;;;;;5067278;28;19924;-61
2023/02/24 06:53:15;;;;;;;;;;;4.00;99.90;;;;;;5064780;28;19983;-61
2023/02/24 06:55:42;;;;;;;;;;;4.00;99.90;;;;;;5068196;28;19932;-61
2023/02/24 06:58:15;;;;;;;;;;;3.90;99.90;;;;;;5065573;28;19925;-60
2023/02/24 07:00:44;;;;;;;;;;;4.00;99.90;;;;;;5060403;28;20444;-60
2023/02/24 07:03:16;;;;;;;;;;;4.00;99.90;;;;;;5060254;28;19929;-63
2023/02/24 07:05:48;;;;;;;;;;;4.00;99.90;;;;;;5060824;28;19924;-62
2023/02/24 07:08:16;;;;;;;;;;;4.10;99.90;;;;;;5052447;28;19931;-63
2023/02/24 07:10:43;;;;;;;;;;;4.10;99.90;;;;;;5052071;28;20494;-64
2023/02/24 07:13:09;;;;;;;;;;;4.10;99.90;;;;;;5060304;28;19925;-64
2023/02/24 07:15:37;;;;;;;;;;;4.20;99.90;;;;;;5061771;28;19970;-63
2023/02/24 07:18:05;;;;;;;;;;;4.20;99.90;;;;;;5068239;28;19982;-63
2023/02/24 07:20:42;;;;;;;;;;;4.10;99.90;;;;;;5066618;28;19924;-63
2023/02/24 07:23:09;;;;;;;;;;;4.20;99.90;;;;;;5064138;28;19925;-64
2023/02/24 07:25:35;;;;;;;;;;;4.20;99.90;;;;;;5067903;28;20349;-60
2023/02/24 07:28:02;;;;;;;;;;;4.10;99.10;;;;;;5065530;28;20312;-61
2023/02/24 07:30:29;;;;;;;;;;;4.20;95.60;;;;;;5067687;28;20352;-62
2023/02/24 07:32:57;;;;;;;;;;;4.20;94.70;;;;;;5064363;28;20019;-61
2023/02/24 07:35:23;;;;;;;;;;;4.10;91.30;;;;;;5057832;28;19975;-61
2023/02/24 07:37:50;;;;;;;;;;;4.10;98.30;;;;;;5071140;28;19928;-62
2023/02/24 07:40:20;;;;;;;;;;;4.20;99.90;;;;;;5061167;28;19935;-63
2023/02/24 07:42:47;;;;;;;;;;;4.40;99.90;;;;;;5066682;28;19930;-65
2023/02/24 07:45:14;;;;;;;;;;;4.40;92.80;;;;;;5069845;28;19925;-63
2023/02/24 07:47:41;;;;;;;;;;;4.30;72.80;;;;;;5072923;28;19928;-63
2023/02/24 07:50:17;;;;;;;;;;;4.30;65.20;;;;;;5068453;28;20048;-62
2023/02/24 07:52:43;;;;;;;;;;;4.20;61.70;;;;;;5061868;28;20441;-62
2023/02/24 07:55:10;;;;;;;;;;;4.20;63.40;;;;;;5068242;28;19933;-63
2023/02/24 07:57:37;;;;;;;;;;;4.30;47.50;;;;;;5065767;28;19930;-65
2023/02/24 08:00:17;;;;;;;;;;;4.30;49.30;;;;;;5060670;28;19924;-65
2023/02/24 08:02:44;;;;;;;;;;;4.20;59.50;;;;;;5050827;28;20294;-64
2023/02/24 08:05:12;;;;;;;;;;;4.10;64.80;;;;;;5051606;28;20375;-63
2023/02/24 08:07:39;;;;;;;;;;;4.10;82.60;;;;;;5061813;28;19925;-65
2023/02/24 08:10:12;;;;;;;;;;;4.20;85.00;;;;;;5061819;28;19931;-64
2023/02/24 08:12:41;;;;;;;;;;;4.20;73.60;;;;;;5065729;28;19924;-63
2023/02/24 08:15:15;;;;;;;;;;;4.20;57.00;;;;;;5066280;28;20003;-63
2023/02/24 08:17:42;;;;;;;;;;;4.30;43.20;;;;;;5069038;28;19990;-62
2023/02/24 08:20:21;;;;;;;;;;;4.30;26.60;;;;;;5069558;28;20451;-64
2023/02/24 08:22:50;;;;;;;;;;;4.30;18.10;;;;;;5066374;28;20295;-63
2023/02/24 08:25:18;;;;;;;;;;;4.30;2.00;;;;;;5067359;28;19971;-64
2023/02/24 08:27:45;;;;;;;;;;;4.30;1.30;;;;;;5067737;28;20426;-64
2023/02/24 08:30:22;;;;;;;;;;;4.30;2.60;;;;;;5066277;28;19925;-63
2023/02/24 08:32:55;;;;;;;;;;;4.40;12.80;;;;;;5065796;28;19932;-65
2023/02/24 08:35:24;;;;;;;;;;;4.40;1.00;;;;;;5072499;28;20294;-65
2023/02/24 08:37:53;;;;;;;;;;;4.40;1.00;;;;;;5061054;28;19925;-66
2023/02/24 08:40:38;;;;;;;;;;;4.50;1.00;;;;;;5066336;28;20312;-64
2023/02/24 08:43:14;;;;;;;;;;;4.50;1.00;;;;;;5054971;28;19936;-65
2023/02/24 08:45:43;;;;;;;;;;;4.60;1.00;;;;;;5056823;28;19980;-63
2023/02/24 08:48:17;;;;;;;;;;;4.50;1.00;;;;;;5067896;28;19924;-64
2023/02/24 08:50:44;;;;;;;;;;;4.40;1.00;;;;;;5071311;28;19925;-62
2023/02/24 08:53:17;;;;;;;;;;;4.40;4.20;;;;;;5063765;28;19986;-64
2023/02/24 08:55:50;;;;;;;;;;;4.30;7.30;;;;;;5063687;28;21341;-64
2023/02/24 08:58:17;;;;;;;;;;;4.40;36.50;;;;;;5065249;28;20423;-63
2023/02/24 09:00:48;;;;;;;;;;;4.30;42.60;;;;;;5068486;28;19978;-64
2023/02/24 09:03:26;;;;;;;;;;;4.20;56.70;;;;;;5070904;28;19924;-64
2023/02/24 09:05:57;;;;;;;;;;;4.30;67.50;;;;;;5061897;28;19932;-64
2023/02/24 09:08:31;;;;;;;;;;;4.40;70.30;;;;;;5060633;28;19979;-62
2023/02/24 09:10:59;;;;;;;;;;;4.40;61.80;;;;;;5065829;28;19935;-62
2023/02/24 09:13:31;;;;;;;;;;;4.30;56.20;;;;;;5064826;28;19924;-62
2023/02/24 09:15:59;;;;;;;;;;;4.50;59.40;;;;;;5062651;28;19928;-62
2023/02/24 09:18:29;;;;;;;;;;;4.50;34.00;;;;;;5072216;28;19986;-62
2023/02/24 09:21:14;;;;;;;;;;;4.50;27.70;;;;;;5073285;28;20276;-63
2023/02/24 09:23:45;;;;;;;;;;;4.50;38.70;;;;;;5058434;28;19939;-62
2023/02/24 09:26:12;;;;;;;;;;;4.50;35.00;;;;;;5056421;28;20362;-62
2023/02/24 09:28:47;;;;;;;;;;;4.40;26.10;;;;;;5057990;28;19924;-62
2023/02/24 09:31:15;;;;;;;;;;;4.60;32.00;;;;;;5065925;28;19924;-62
2023/02/24 09:33:49;;;;;;;;;;;4.60;31.40;;;;;;5071108;28;19928;-62
2023/02/24 09:36:19;;;;;;;;;;;4.60;29.20;;;;;;5070471;28;19925;-62
2023/02/24 09:39:10;;;;;;;;;;;4.60;2.50;;;;;;5064977;28;19928;-64
2023/02/24 09:41:55;;;;;;;;;;;4.60;17.90;;;;;;5063882;28;19925;-63
2023/02/24 09:44:27;;;;;;;;;;;4.60;18.40;;;;;;5064329;28;20495;-64
2023/02/24 09:46:55;;;;;;;;;;;4.60;15.40;;;;;;5071375;28;19932;-62
2023/02/24 09:49:24;;;;;;;;;;;4.70;8.90;;;;;;5072058;28;19952;-63
2023/02/24 09:51:59;;;;;;;;;;;4.70;1.00;;;;;;5072450;28;19924;-65
2023/02/24 09:54:30;;;;;;;;;;;4.60;1.00;;;;;;5064241;28;19925;-64
2023/02/24 09:57:07;;;;;;;;;;;4.60;1.00;;;;;;5068048;28;20348;-63
2023/02/24 09:59:37;;;;;;;;;;;4.70;1.00;;;;;;5055541;28;20452;-66
2023/02/24 10:02:11;;;;;;;;;;;4.70;1.00;;;;;;5067580;28;20322;-65
2023/02/24 10:04:47;;;;;;;;;;;4.60;1.00;;;;;;5064845;28;19978;-65
2023/02/24 10:07:16;;;;;;;;;;;4.60;1.00;;;;;;5064054;28;19968;-65
2023/02/24 10:09:49;;;;;;;;;;;4.60;1.00;;;;;;5069925;28;19925;-66
2023/02/24 10:12:19;;;;;;;;;;;4.60;1.00;;;;;;5066868;28;19954;-65
2023/02/24 10:14:51;;;;;;;;;;;4.60;1.00;;;;;;5074280;28;19925;-63
2023/02/24 10:17:29;;;;;;;;;;;4.50;1.00;;;;;;5067504;28;19962;-64
2023/02/24 10:19:58;;;;;;;;;;;4.50;1.00;;;;;;5072036;28;19975;-65
2023/02/24 10:22:38;;;;;;;;;;;4.50;1.00;;;;;;5058706;28;19925;-65
2023/02/24 10:25:18;;;;;;;;;;;4.60;1.00;;;;;;5059680;28;19991;-63
2023/02/24 10:27:51;;;;;;;;;;;4.60;1.00;;;;;;5062489;28;19928;-64
2023/02/24 10:30:39;;;;;;;;;;;4.50;1.00;;;;;;5055797;28;19924;-65
2023/02/24 10:33:15;;;;;;;;;;;4.60;1.00;;;;;;5054965;28;20008;-65
2023/02/24 10:35:42;;;;;;;;;;;4.60;1.00;;;;;;5053604;28;19931;-67
2023/02/24 10:38:09;;;;;;;;;;;4.60;1.00;;;;;;5061372;28;19924;-65
2023/02/24 10:40:45;;;;;;;;;;;4.70;1.00;;;;;;5065144;28;19931;-64
2023/02/24 10:43:16;;;;;;;;;;;4.50;1.00;;;;;;5064452;28;19935;-63
2023/02/24 10:45:44;;;;;;;;;;;4.40;1.00;;;;;;5053284;28;19932;-62
2023/02/24 10:48:23;;;;;;;;;;;4.30;1.00;;;;;;5062934;28;20008;-63
2023/02/24 10:50:53;;;;;;;;;;;4.30;1.00;;;;;;5060047;28;20375;-64
2023/02/24 10:53:33;;;;;;;;;;;4.30;8.90;;;;;;5063716;28;19974;-65
2023/02/24 10:56:25;;;;;;;;;;;4.30;39.60;;;;;;5063023;28;19925;-64
2023/02/24 11:02:05;;;;;;;;;;;4.20;69.20;;;;;;5100752;27;19939;-61
2023/02/24 11:04:43;;;;;;;;;;;4.20;76.60;;;;;;5103011;28;20026;-62
2023/02/24 11:07:12;;;;;;;;;;;4.10;86.90;;;;;;5096294;28;20859;-63
2023/02/24 11:09:51;;;;;;;;;;;4.00;82.40;;;;;;5102838;28;20416;-62
2023/02/24 11:17:55;;;;;;;;;;;4.10;99.70;;;;;;5098260;28;20054;-63
2023/02/24 11:20:26;;;;;;;;;;;4.10;99.90;;;;;;5098674;28;19931;-64
2023/02/24 11:22:54;;;;;;;;;;;4.00;99.90;;;;;;5099219;28;19932;-65
2023/02/24 11:25:23;;;;;;;;;;;4.00;99.90;;;;;;5102577;28;19920;-64
2023/02/24 11:27:51;;;;;;;;;;;4.10;99.90;;;;;;5101394;28;19978;-62
2023/02/24 11:30:24;;;;;;;;;;;4.10;99.90;;;;;;5100659;28;19920;-63
2023/02/24 11:32:58;;;;;;;;;;;4.00;99.90;;;;;;5098490;28;19928;-63
2023/02/24 11:35:27;;;;;;;;;;;4.00;99.90;;;;;;5101072;28;19920;-64
2023/02/24 11:38:00;;;;;;;;;;;3.90;99.90;;;;;;5098815;28;20018;-64
2023/02/24 11:40:28;;;;;;;;;;;3.80;99.90;;;;;;5097747;28;19959;-69
2023/02/24 11:42:56;;;;;;;;;;;3.90;99.90;;;;;;5098399;28;19920;-69
2023/02/24 11:45:28;;;;;;;;;;;4.00;99.90;;;;;;5091166;28;19927;-69
2023/02/24 11:47:59;;;;;;;;;;;4.30;99.90;;;;;;5093403;28;19924;-67
2023/02/24 11:50:29;;;;;;;;;;;4.40;99.90;;;;;;5093748;28;20003;-63
2023/02/24 11:52:57;;;;;;;;;;;4.20;99.90;;;;;;5098859;28;20007;-65
2023/02/24 11:55:27;;;;;;;;;;;4.30;99.90;;;;;;5099252;28;19920;-64
2023/02/24 11:57:55;;;;;;;;;;;4.30;99.90;;;;;;5098129;28;19920;-65
2023/02/24 12:00:24;;;;;;;;;;;4.20;99.90;;;;;;5100347;28;20328;-66
2023/02/24 12:02:53;;;;;;;;;;;4.20;99.90;;;;;;5117422;28;19927;-65
2023/02/24 12:05:24;;;;;;;;;;;4.20;99.90;;;;;;5117939;28;19924;-62
2023/02/24 12:07:52;;;;;;;;;;;4.20;99.90;;;;;;5120315;28;19930;-64
2023/02/24 12:10:20;;;;;;;;;;;4.20;99.90;;;;;;5117355;28;19936;-63
2023/02/24 12:12:49;;;;;;;;;;;4.20;99.90;;;;;;5108369;27;19963;-63
2023/02/24 12:15:18;;;;;;;;;;;4.20;99.90;;;;;;5106597;28;19920;-63
2023/02/24 12:17:50;;;;;;;;;;;4.10;99.90;;;;;;5098300;28;20037;-64
2023/02/24 12:20:19;;;;;;;;;;;4.10;99.90;;;;;;5112398;28;19959;-65
2023/02/24 12:22:50;;;;;;;;;;;4.00;99.90;;;;;;5126080;28;19923;-63
2023/02/24 12:25:18;;;;;;;;;;;3.90;99.90;;;;;;5114422;28;19920;-65
2023/02/24 12:27:51;;;;;;;;;;;3.90;99.90;;;;;;5101227;28;20345;-64
2023/02/24 12:30:32;;;;;;;;;;;3.80;99.90;;;;;;5102950;28;20344;-64
2023/02/24 12:33:08;;;;;;;;;;;3.80;99.90;;;;;;5103050;28;20386;-65
2023/02/24 12:35:43;;;;;;;;;;;3.80;99.90;;;;;;5103619;28;19927;-65
2023/02/24 12:38:17;;;;;;;;;;;3.80;99.90;;;;;;5100418;28;19960;-66
2023/02/24 12:40:47;;;;;;;;;;;3.60;99.90;;;;;;5101876;28;20378;-65
2023/02/24 12:43:20;;;;;;;;;;;3.70;99.90;;;;;;5090261;28;19951;-61
2023/02/24 12:45:51;;;;;;;;;;;3.70;99.90;;;;;;5102466;28;19940;-61
2023/02/24 12:48:28;;;;;;;;;;;3.60;99.90;;;;;;5099765;28;19920;-61
2023/02/24 12:50:59;;;;;;;;;;;3.60;99.90;;;;;;5099893;28;19920;-63
2023/02/24 12:53:32;;;;;;;;;;;3.60;99.90;;;;;;5103024;28;19965;-61
2023/02/24 12:56:02;;;;;;;;;;;3.50;99.90;;;;;;5103560;28;20443;-63
2023/02/24 12:58:32;;;;;;;;;;;3.50;99.90;;;;;;5099369;28;19965;-62
2023/02/24 13:01:04;;;;;;;;;;;3.50;99.90;;;;;;5102509;28;20321;-63
2023/02/24 13:03:38;;;;;;;;;;;3.50;99.90;;;;;;5100247;28;20327;-64
2023/02/24 13:06:09;;;;;;;;;;;3.40;99.90;;;;;;5105918;28;19972;-65
2023/02/24 13:08:43;;;;;;;;;;;3.50;99.90;;;;;;5103755;28;20375;-64
2023/02/24 13:11:13;;;;;;;;;;;3.50;99.90;;;;;;5104673;28;20727;-64
2023/02/24 13:13:43;;;;;;;;;;;3.50;99.90;;;;;;5107903;28;20039;-65
2023/02/24 13:16:10;;;;;;;;;;;3.50;99.90;;;;;;5104647;28;19920;-65
2023/02/24 13:18:38;;;;;;;;;;;3.50;99.90;;;;;;5098663;28;19949;-64
2023/02/24 13:21:06;;;;;;;;;;;3.40;99.90;;;;;;5100936;28;20302;-64
2023/02/24 13:23:33;;;;;;;;;;;3.40;99.90;;;;;;5102299;28;19920;-66
2023/02/24 13:26:01;;;;;;;;;;;3.50;99.90;;;;;;5101821;28;19924;-64
2023/02/24 13:28:31;;;;;;;;;;;3.50;99.90;;;;;;5104490;28;19945;-63
2023/02/24 13:30:59;;;;;;;;;;;3.50;99.90;;;;;;5101758;28;19920;-63
2023/02/24 13:33:29;;;;;;;;;;;3.50;99.90;;;;;;5114062;28;19920;-64
2023/02/24 13:36:05;;;;;;;;;;;3.40;99.90;;;;;;5101396;28;20006;-64
2023/02/24 13:38:35;;;;;;;;;;;3.40;99.90;;;;;;5101996;28;20420;-62
2023/02/24 13:41:19;;;;;;;;;;;3.40;99.90;;;;;;5097628;28;19923;-62
2023/02/24 13:43:53;;;;;;;;;;;3.40;99.90;;;;;;5109999;28;19927;-62
2023/02/24 13:46:20;;;;;;;;;;;3.50;99.90;;;;;;5113448;28;20366;-63
2023/02/24 13:48:55;;;;;;;;;;;3.40;99.90;;;;;;5092240;28;20002;-63
2023/02/24 13:51:29;;;;;;;;;;;3.40;99.90;;;;;;5100594;28;19945;-61
2023/02/24 13:54:02;;;;;;;;;;;3.50;99.90;;;;;;5099113;28;19919;-64
2023/02/24 13:56:35;;;;;;;;;;;3.50;99.90;;;;;;5072196;28;20440;-64
2023/02/24 13:59:10;;;;;;;;;;;3.50;99.90;;;;;;5091683;28;19947;-62
2023/02/24 14:01:45;;;;;;;;;;;3.50;99.90;;;;;;5077369;28;20325;-63
2023/02/24 14:04:14;;;;;;;;;;;3.50;99.90;;;;;;5096703;28;19966;-66
2023/02/24 14:06:46;;;;;;;;;;;3.60;99.90;;;;;;5099871;28;19919;-65
2023/02/24 14:09:14;;;;;;;;;;;3.60;99.90;;;;;;5101090;28;20340;-64
2023/02/24 14:11:42;;;;;;;;;;;3.50;99.90;;;;;;5099883;28;19958;-62
2023/02/24 14:14:14;;;;;;;;;;;3.50;99.90;;;;;;5100543;28;19964;-64
2023/02/24 14:16:41;;;;;;;;;;;3.60;99.90;;;;;;5101473;28;20374;-63
2023/02/24 14:19:12;;;;;;;;;;;3.60;99.90;;;;;;5099552;28;19980;-64
2023/02/24 14:21:46;;;;;;;;;;;3.70;99.90;;;;;;5098300;28;20298;-66
2023/02/24 14:24:13;;;;;;;;;;;3.80;99.90;;;;;;5100019;28;19923;-64
2023/02/24 14:26:43;;;;;;;;;;;3.70;99.90;;;;;;5101392;28;19923;-62
2023/02/24 14:29:10;;;;;;;;;;;3.80;99.90;;;;;;5097513;28;19936;-64
2023/02/24 14:31:37;;;;;;;;;;;3.80;99.90;;;;;;5105286;28;20044;-66
2023/02/24 14:34:08;;;;;;;;;;;3.80;99.90;;;;;;5104738;28;19924;-66
2023/02/24 14:36:37;;;;;;;;;;;3.80;99.90;;;;;;5101804;28;19977;-66
2023/02/24 14:39:07;;;;;;;;;;;3.90;99.90;;;;;;5099703;28;20293;-65
2023/02/24 14:41:34;;;;;;;;;;;3.90;99.90;;;;;;5102579;28;20018;-65
2023/02/24 14:44:08;;;;;;;;;;;3.70;99.90;;;;;;5100786;28;19920;-65
2023/02/24 14:46:34;;;;;;;;;;;3.80;99.90;;;;;;5100255;28;19973;-67
2023/02/24 14:49:01;;;;;;;;;;;3.90;99.90;;;;;;5102850;28;20336;-66
2023/02/24 14:51:29;;;;;;;;;;;3.90;99.90;;;;;;5102091;28;19920;-64
2023/02/24 14:54:02;;;;;;;;;;;3.90;99.90;;;;;;5103928;28;19920;-64
2023/02/24 14:56:30;;;;;;;;;;;4.30;99.90;;;;;;5101747;28;19924;-65
2023/02/24 14:59:00;;;;;;;;;;;4.20;99.90;;;;;;5099708;28;19920;-65
2023/02/24 15:01:30;;;;;;;;;;;4.20;99.90;;;;;;5101121;28;19928;-64
2023/02/24 15:03:59;;;;;;;;;;;4.20;99.90;;;;;;5099599;28;19920;-64